Tiempo atmosférico en la estación meteorológica de Xàtiva, València/Valencia (88 m.)



Fecha
DESCASC
Temp. máxima en grados centígrados (hora)
DESCASC
Temp. mínima en grados centígrados (hora)
DESCASC
Temp. media en grados centígrados
DESCASC
Racha de viento máxima en m/sg (hora)
DESCASC
Velocidad máxima media en intervalos de 10 minutos(hora)
DESCASC
Precipitaciones diarias en mm
DESCASC
Precipitaciones de 00:00 a 06:00 en mm
DESCASC
Precipitaciones de 06:00 a 12:00 en mm
DESCASC
Precipitaciones de 12:00 a 18:00 en mm
DESCASC
Precipitaciones de 18:00 a 24:00 en mm
DESCASC
22-11-2020 18.6 (15:50) 5.1 (06:10) 11.9 5.28 (07:00) 3.33 (07:00) 0 0 0 0 0
21-11-2020 18.3 (15:40) 6.5 (07:40) 12.4 5.83 (16:00) 3.89 (16:50) 0 0 0 0 0
20-11-2020 19.7 (15:10) 8.8 (23:40) 14.3 5.56 (00:30) 3.33 (00:10) 0 0 0 0 0
19-11-2020 23.1 (16:40) 11.4 (00:00) 17.3 4.72 (23:59) 2.78 (21:30) 0 0 0 0 0
18-11-2020 21.4 (16:10) 12.1 (00:00) 16.8 4.17 (05:50) 2.5 (05:30) 0 0 0 0 0
17-11-2020 23.2 (15:40) 11 (00:00) 17.1 5 (15:10) 3.06 (01:30) 0 0 0 0 0
16-11-2020 25 (14:10) 14.7 (00:00) 19.8 9.44 (08:40) 4.72 (08:50) 0 0 0 0 0
15-11-2020 25.7 (15:30) 13.3 (00:00) 19.5 10 (14:10) 5.83 (14:10) 0 0 0 0 0
14-11-2020 18.7 (16:40) 12.5 (00:00) 15.6 2.78 (21:40) 1.67 (15:00) 0.2 0 0 0.2 0
13-11-2020 21.1 (14:40) 13.5 (00:00) 17.3 4.17 (15:30) 2.5 (15:30) 0 0 0 0 0
12-11-2020 21.4 (15:40) 8.6 (00:00) 15 5.83 (16:20) 3.06 (15:50) 0 0 0 0 0
11-11-2020 22.5 (15:40) 9.5 (00:00) 16 5.56 (16:20) 3.33 (16:50) 0 0 0 0 0
10-11-2020 22.4 (14:50) 10.4 (00:00) 16.4 5.56 (15:00) 2.78 (15:10) 0 0 0 0 0
09-11-2020 24.4 (15:20) 9.9 (00:00) 17.1 5.83 (20:30) 3.61 (20:30) 0 0 0 0 0
08-11-2020 23 (16:30) 9.5 (00:00) 16.3 5.28 (08:20) 3.33 (16:50) 0 0 0 0 0
07-11-2020 22 (17:10) 12.7 (00:00) 17.3 22.78 (06:20) 6.94 (06:20) 5.4 0.6 4.8 0 0
06-11-2020 21.4 (14:10) 16 (00:00) 18.7 20.28 (16:10) 5.56 (16:10) 0.4 0.2 0.2 0 0
05-11-2020 16.6 (19:30) 13.1 (00:00) 14.9 15 (12:40) 6.67 (10:00) 33.2 7.2 24.6 1.4 0
04-11-2020 17.6 (00:00) 12.4 (00:00) 15 8.33 (12:40) 4.17 (12:30) 9.6 0 0.8 0.4 8.4
03-11-2020 21.8 (15:30) 14.2 (00:00) 18 6.11 (16:50) 3.33 (16:50) 0 0 0 0 0
02-11-2020 28.5 (15:20) 10.1 (00:00) 19.3 5.83 (18:20) 3.61 (18:20) 0 0 0 0 0
01-11-2020 29 (15:20) 10 (00:00) 19.5 4.44 (18:50) 3.06 (18:50) 0 0 0 0 0
31-10-2020 27.8 (15:30) 9.7 (00:00) 18.7 5 (16:20) 3.61 (16:20) 0 0 0 0 0
30-10-2020 27.7 (15:40) 9.2 (00:00) 18.5 5 (14:50) 3.06 (15:10) 0 0 0 0 0
29-10-2020 25.6 (15:30) 10.1 (00:00) 17.9 6.11 (16:10) 3.61 (16:30) 0 0 0 0 0
28-10-2020 28.1 (16:30) 10.9 (00:00) 19.5 6.94 (02:40) 4.44 (02:40) 0 0 0 0 0

Gráficas

Temp. máximas Temp. mínimas Temp. medias Precipitaciones Rachas de viento máximas Velocidades máximas media en intervalos de 10 minutos

Datos horarios

Fecha y hora oficial Temperatura (ºC) Velocidad del viento (km/h) Dirección del viento Racha (km/h) Dirección de racha Precipitación (mm) Presión (hPa) Tendencia (hPa) Humedad (%)
2020-11-26 23:00:00 14.3 4 Oeste 10 Este 0 1002 -0.2 84
2020-11-26 22:00:00 14.2 4 Este 16 Nordeste 0 1002.1 0.3 89
2020-11-26 21:00:00 14.5 3 Oeste 4 Oeste 0 1002.2 0.8 92
2020-11-26 20:00:00 15.4 3 Sur 6 Sudoeste 0 1002.2 1 92
2020-11-26 19:00:00 15.9 0 Calma 7 Este 0 1001.8 0.8 91
2020-11-26 18:00:00 16.6 6 Nordeste 14 Nordeste 0 1001.4 0.1 90
2020-11-26 17:00:00 17.7 6 Nordeste 15 Norte 0 1001.2 -0.8 82
2020-11-26 16:00:00 18.3 7 Nordeste 13 Nordeste 0 1001 -2 77
2020-11-26 15:00:00 18.2 4 Noroeste 14 Nordeste 0 1001.3 -2.7 77
2020-11-26 14:00:00 17 5 Norte 12 Nordeste 0 1002 -2.5 80
2020-11-26 13:00:00 16.1 2 Noroeste 9 Sudoeste 0 1003 -- 81
2020-11-26 12:00:00 15.3 3 Sudoeste 9 Oeste 0 1004 -- 83
2020-11-26 11:00:00 13.4 4 Sudoeste 8 Sudoeste 0 1004.5 -- 90
2020-11-26 10:00:00 11.4 2 Sudoeste 5 Oeste 0 1004.1 -- 94
2020-11-26 09:00:00 10.5 3 Norte 9 Oeste 0 1004.1 -- 93
2020-11-26 08:00:00 10.2 4 Sudoeste 8 Oeste 0 1004.1 -- 93
2020-11-26 07:00:00 9.5 0 Calma 7 Noroeste 0 1003.7 -- 93
2020-11-26 06:00:00 9.5 3 Sur 7 Oeste 0 1003.8 -- 92
2020-11-26 05:00:00 10 5 Nordeste 7 Nordeste 0 1004 -- 90
2020-11-26 04:00:00 10.8 3 Este 6 Oeste 0 1004.3 -- 89
2020-11-26 03:00:00 10.6 3 Sur 6 Oeste 0 1004.5 -- 90
2020-11-26 02:00:00 10.5 0 Calma 5 Sudeste 0 1004.9 -- 89
2020-11-26 01:00:00 10.5 0 Calma 4 Oeste 0 1005.4 -- 88
2020-11-26 00:00:00 10.5 0 Calma 18 Sudoeste 0 1005.7 -- 88
2020-11-25 23:00:00 9.5 5 Sudoeste 12 Sudoeste 0 1005.3 -- 89
2020-11-25 22:00:00 9.8 5 Oeste 11 Oeste 0 1005.6 -- 88
2020-11-25 21:00:00 10.2 8 Oeste 11 Oeste 0 1005.3 -- 86
2020-11-25 20:00:00 11.8 6 Sudoeste 9 Oeste 0 1005 -- 82
2020-11-25 19:00:00 12.7 6 Sudoeste 9 Oeste 0 1004.9 -- 78
2020-11-25 18:00:00 14.3 5 Norte 13 Nordeste 0 1004.3 -- 70
2020-11-25 17:00:00 16.8 9 Norte 16 Norte 0 1003.9 -- 60
2020-11-25 16:00:00 18.5 10 Norte 17 Norte 0 1004.2 -- 49
2020-11-25 15:00:00 18.6 8 Nordeste 15 Nordeste 0 1004.6 -- 44
2020-11-25 14:00:00 18.5 3 Nordeste 11 Este 0 1005.4 -- 46
2020-11-25 13:00:00 16.9 5 Este 9 Este 0 1006.2 -- 51
2020-11-25 12:00:00 15.9 6 Sudeste 13 Sur 0 1007.3 -- 54
2020-11-25 11:00:00 13.5 6 Sur 15 Sur 0 1007.8 -- 64
2020-11-25 10:00:00 9.2 4 Oeste 15 Oeste 0 1008.1 -- 84
2020-11-25 09:00:00 6.6 9 Sudoeste 16 Sudoeste 0 1008.1 -- 90
2020-11-25 08:00:00 5.1 5 Sudoeste 10 Oeste 0 1007.9 -- 90
2020-11-25 07:00:00 5.3 2 Oeste 10 Sudoeste 0 1007.9 -- 90
2020-11-25 06:00:00 5.8 5 Oeste 8 Oeste 0 1007.7 -- 89
2020-11-25 05:00:00 7.2 4 Sur 14 Sudoeste 0 1007.7 -- 86
2020-11-25 04:00:00 6.8 3 Sur 13 Sudoeste 0 1008.1 -- 88
2020-11-25 03:00:00 7 3 Sur 10 Oeste 0 1008.4 -- 90
2020-11-25 02:00:00 7.2 4 Sudoeste 11 Oeste 0 1008.8 -- 87
2020-11-25 01:00:00 7.8 2 Sudoeste 10 Sudoeste 0 1009.4 -- 85
2020-11-25 00:00:00 8.4 4 Sudoeste 9 Sudoeste 0 1009.6 -- 86
2020-11-24 23:00:00 8.5 3 Oeste 6 Sur 0 1009.8 -- 84
2020-11-24 22:00:00 9 4 Este 9 Oeste 0 1009.8 -- 84
2020-11-24 21:00:00 9.9 4 Oeste 7 Sudoeste 0 1009.7 -- 82
2020-11-24 20:00:00 11.5 6 Sudoeste 9 Sudoeste 0 1009.6 -- 76
2020-11-24 19:00:00 13.9 3 Sudoeste 4 Sur 0 1009.5 -- 68
2020-11-24 18:00:00 15.6 3 Norte 12 Nordeste 0 1009.3 -- 62
2020-11-24 17:00:00 17.8 7 Nordeste 14 Norte 0 1009.3 -- 47
2020-11-24 16:00:00 19.2 6 Norte 13 Norte 0 1009.5 -- 41
2020-11-24 15:00:00 19.3 5 Nordeste 14 Este 0 1010.2 -- 39
2020-11-24 14:00:00 18.6 6 Sudeste 14 Este 0 1011.3 -- 41
2020-11-24 13:00:00 17.4 9 Sudeste 15 Sudeste 0 1012.5 -- 47
2020-11-24 12:00:00 14.1 9 Este 12 Este 0 1013.8 -- 63
2020-11-24 11:00:00 10.9 5 Este 8 Este 0 1014.5 -- 77
2020-11-24 10:00:00 8.2 3 Este 4 Este 0 1014.6 -- 86
2020-11-24 09:00:00 5.4 4 Oeste 9 Oeste 0 1014.5 -- 91
2020-11-24 08:00:00 4.6 3 Oeste 6 Oeste 0 1014.4 -- 91
2020-11-24 07:00:00 4.7 2 Norte 4 Nordeste 0 1014.4 -- 92
2020-11-24 06:00:00 5.2 3 Oeste 5 Sur 0 1014.7 -- 90
2020-11-24 05:00:00 5.5 3 Sudoeste 6 Sur 0 1014.7 -- 91
2020-11-24 04:00:00 5.5 3 Sudoeste 6 Oeste 0 1015.1 -- 90
2020-11-24 03:00:00 6.1 3 Oeste 8 Oeste 0 1015.5 -- 89
2020-11-24 02:00:00 6.6 4 Sudoeste 10 Oeste 0 1015.9 -- 89
2020-11-24 01:00:00 7.2 3 Sudoeste 13 Oeste 0 1016.4 -- 87
2020-11-24 00:00:00 7.8 5 Sudoeste 13 Oeste 0 1016.6 -- 87
2020-11-23 23:00:00 8 8 Oeste 16 Oeste 0 1016.9 -- 87
2020-11-23 22:00:00 8.5 7 Oeste 12 Oeste 0 1017 -- 87
2020-11-23 21:00:00 9.7 7 Oeste 13 Sudoeste 0 1017 -- 85
2020-11-23 20:00:00 11.5 7 Oeste 11 Oeste 0 1016.7 -- 81
2020-11-23 19:00:00 12.5 8 Oeste 12 Oeste 0 1016.3 -- 75
2020-11-23 18:00:00 14.3 5 Nordeste 14 Norte 0 1015.8 -- 69
2020-11-23 17:00:00 16.7 8 Norte 13 Nordeste 0 1015.4 -- 56
2020-11-23 16:00:00 18.1 5 Nordeste 12 Este 0 1015.5 -- 47
2020-11-23 15:00:00 17.7 5 Nordeste 12 Este 0 1015.9 -- 47
2020-11-23 14:00:00 16.6 5 Este 10 Nordeste 0 1016.7 -- 52
2020-11-23 13:00:00 15.9 4 Este 9 Sudeste 0 1017.8 -- 53
2020-11-23 12:00:00 14.9 3 Sur 8 Oeste 0 1018.9 -- 56
2020-11-23 11:00:00 11.7 4 Oeste 16 Sudoeste 0 1019.1 -- 66
2020-11-23 10:00:00 8.5 10 Sudoeste 16 Sudoeste 0 1019.1 -- 75
2020-11-23 09:00:00 5.8 6 Oeste 15 Oeste 0 1018.8 -- 87
2020-11-23 08:00:00 5.3 8 Sudoeste 12 Sudoeste 0 1018.5 -- 87
2020-11-23 07:00:00 5 6 Oeste 15 Sudoeste 0 1018.2 -- 86
2020-11-23 06:00:00 5.7 6 Oeste 17 Oeste 0 1018 -- 83
2020-11-23 05:00:00 5.7 7 Sudoeste 13 Sudoeste 0 1017.7 -- 84
2020-11-23 04:00:00 5.8 5 Sudoeste 9 Oeste 0 1017.8 -- 87
2020-11-23 03:00:00 5.8 6 Oeste 15 Sudoeste 0 1017.9 -- 84
2020-11-23 02:00:00 6.7 10 Sudoeste 16 Sudoeste 0 1017.9 -- 81
2020-11-23 01:00:00 6.6 7 Sudoeste 13 Oeste 0 1018 -- 82
2020-11-23 00:00:00 7.6 10 Sudoeste 15 Sudoeste 0 1018 -- 79
2020-11-22 23:00:00 8.2 9 Sudoeste 18 Oeste 0 1018 -- 77
2020-11-22 22:00:00 8.3 7 Sudoeste 12 Oeste 0 1017.7 -- 82
2020-11-22 21:00:00 9.5 6 Oeste 11 Sudoeste 0 1017.6 -- 82
2020-11-22 20:00:00 11 7 Sudoeste 9 Oeste 0 1017.1 -- 79
2020-11-22 19:00:00 12.1 5 Noroeste 13 Este 0 1016.4 -- 70
2020-11-22 18:00:00 14.7 4 Nordeste 10 Norte 0 1015.8 -- 54
2020-11-22 17:00:00 17.3 6 Nordeste 12 Nordeste 0 1015.2 -- 36
2020-11-22 16:00:00 18.4 8 Nordeste 16 Nordeste 0 1015.2 -- 31
2020-11-22 15:00:00 18.5 6 Nordeste 13 Este 0 1015.7 -- 36
2020-11-22 14:00:00 18 6 Este 14 Este 0 1016.4 -- 41
2020-11-22 13:00:00 17.2 5 Sudeste 13 Sur 0 1017.4 -- 46
2020-11-22 12:00:00 15.1 6 Sudeste 14 Sudeste 0 1018.6 -- 54
2020-11-22 11:00:00 12.4 4 Este 18 Sudoeste 0 1019.2 -- 65
2020-11-22 10:00:00 8.5 5 Sudoeste 14 Oeste 0 1019.5 -- 83
2020-11-22 09:00:00 5.7 5 Oeste 16 Oeste 0 1019.3 -- 89
2020-11-22 08:00:00 5.6 8 Oeste 18 Sudoeste 0 1019 -- 88
2020-11-22 07:00:00 6.3 12 Sudoeste 19 Sudoeste 0 1018.6 -- 87
2020-11-22 06:00:00 5.2 9 Oeste 13 Sudoeste 0 1018.3 -- 88
2020-11-22 05:00:00 6.6 8 Oeste 17 Sudoeste 0 1018 -- 85
2020-11-22 04:00:00 6.7 6 Oeste 13 Oeste 0 1018 -- 88
2020-11-22 03:00:00 6.6 6 Oeste 13 Sudoeste 0 1018.3 -- 87
2020-11-22 02:00:00 7.2 9 Oeste 17 Oeste 0 1018.8 -- 87
2020-11-22 01:00:00 8.1 9 Oeste 17 Sudoeste 0 1019.4 -- 85
2020-11-22 00:00:00 8.9 9 Sudoeste 14 Oeste 0 1019.7 -- 83
2020-11-21 23:00:00 9 8 Sudoeste 17 Sudoeste 0 1019.6 -- 84
2020-11-21 22:00:00 9.8 8 Oeste 14 Sudoeste 0 1019.4 -- 83
2020-11-21 21:00:00 10.6 9 Oeste 12 Sudoeste 0 1019 -- 79
2020-11-21 20:00:00 12.3 6 Oeste 9 Oeste 0 1018.7 -- 71
2020-11-21 19:00:00 13.5 0 Calma 15 Este 0 1018.4 -- 66
2020-11-21 18:00:00 14.6 6 Nordeste 19 Este 0 1018 -- 63
2020-11-21 17:00:00 16.1 12 Nordeste 21 Este 0 1017.4 -- 55
2020-11-21 16:00:00 17.6 12 Nordeste 21 Nordeste 0 1017.4 -- 50
2020-11-21 15:00:00 18.1 8 Nordeste 18 Nordeste 0 1017.4 -- 49
2020-11-21 14:00:00 17.4 9 Nordeste 18 Nordeste 0 1017.8 -- 53
2020-11-21 13:00:00 16.9 6 Este 13 Sur 0 1018.3 -- 54
2020-11-21 12:00:00 16 3 Este 12 Oeste 0 1019 -- 55
2020-11-21 11:00:00 13.3 7 Sudoeste 13 Oeste 0 1019.2 -- 65
2020-11-21 10:00:00 10.4 6 Sudoeste 17 Oeste 0 1019.2 -- 78
2020-11-21 09:00:00 7.6 4 Oeste 15 Oeste 0 1018.5 -- 91
2020-11-21 08:00:00 6.8 9 Oeste 15 Oeste 0 1017.8 -- 90
2020-11-21 07:00:00 6.6 8 Oeste 14 Sudoeste 0 1017.4 -- 87
2020-11-21 06:00:00 7 4 Sudoeste 10 Oeste 0 1017.3 -- 87
2020-11-21 05:00:00 7.4 8 Sudoeste 14 Sudoeste 0 1017.1 -- 86
2020-11-21 04:00:00 7.4 7 Oeste 19 Sudoeste 0 1017.1 -- 87
2020-11-21 03:00:00 7.5 7 Sudoeste 16 Sudoeste 0 1017 -- 86
2020-11-21 02:00:00 8.3 7 Sudoeste 11 Sudoeste 0 1017 -- 85
2020-11-21 01:00:00 8.7 6 Sudoeste 15 Sudoeste 0 1017.2 -- 86
2020-11-21 00:00:00 9.3 8 Sudoeste 16 Sudoeste 0 1016.9 -- 84
2020-11-20 23:00:00 9.7 6 Oeste 14 Sudoeste 0 1016.9 -- 83
2020-11-20 22:00:00 10 9 Oeste 14 Oeste 0 1016.9 -- 82
2020-11-20 21:00:00 10.9 9 Sudoeste 13 Oeste 0 1016.5 -- 77
2020-11-20 20:00:00 12.4 2 Oeste 9 Sudeste 0 1016 -- 68
2020-11-20 19:00:00 13.9 3 Norte 13 Sur 0 1015.6 -- 62
2020-11-20 18:00:00 16.6 7 Sur 14 Sur 0 1015.3 -- 48
2020-11-20 17:00:00 18.5 2 Este 11 Norte 0 1015.2 -- 51
2020-11-20 16:00:00 19 5 Nordeste 10 Norte 0 1015.5 -- 49
2020-11-20 15:00:00 18.9 2 Nordeste 10 Norte 0 1015.9 -- 49
2020-11-20 14:00:00 17.7 5 Nordeste 9 Nordeste 0 1017.3 -- 52
2020-11-20 13:00:00 16.7 3 Este 9 Noroeste 0 1018.2 -- 56
2020-11-20 12:00:00 15.5 4 Oeste 11 Oeste 0 1018.8 -- 64
2020-11-20 11:00:00 13.3 6 Oeste 13 Sudoeste 0 1018.7 -- 73
2020-11-20 10:00:00 12 7 Sudoeste 18 Sudoeste 0 1018.3 -- 78
2020-11-20 09:00:00 10.6 9 Sudoeste 15 Sudoeste 0 1017.6 -- 83
2020-11-20 08:00:00 9.5 8 Oeste 14 Oeste 0 1017.3 -- 87
2020-11-20 07:00:00 9.8 4 Oeste 13 Sudoeste 0 1017.3 -- 87
2020-11-20 06:00:00 10.2 5 Oeste 13 Sudoeste 0 1017.4 -- 85
2020-11-20 05:00:00 10.1 5 Sudoeste 16 Sudoeste 0 1017.5 -- 84
2020-11-20 04:00:00 10.9 6 Sudoeste 19 Sudoeste 0 1017.3 -- 83
2020-11-20 03:00:00 11.2 6 Sudoeste 16 Sudoeste 0 1017.5 -- 81
2020-11-20 02:00:00 12.1 5 Sudoeste 14 Sudoeste 0 1018.3 -- 79
2020-11-20 01:00:00 12.6 8 Oeste 20 Sudoeste 0 1018.6 -- 78
2020-11-20 00:00:00 12.9 9 Sudoeste 17 Sudoeste 0 1019.2 -- 78
2020-11-19 23:00:00 12.8 7 Oeste 12 Oeste 0 1019.3 -- 80
2020-11-19 22:00:00 14.1 4 Norte 17 Sudoeste 0 1019.4 -- 76
2020-11-19 21:00:00 13.8 7 Oeste 13 Sudoeste 0 1019.3 -- 79
2020-11-19 20:00:00 15.4 7 Sudoeste 12 Sudoeste 0 1018.8 -- 73
2020-11-19 19:00:00 16.8 6 Oeste 10 Oeste 0 1018.5 -- 70
2020-11-19 18:00:00 19.8 4 Sudeste 7 Noroeste 0 1017.7 -- 56
2020-11-19 17:00:00 22 4 Norte 8 Este 0 1017.7 -- 50
2020-11-19 16:00:00 22.4 4 Norte 12 Norte 0 1018.1 -- 46
2020-11-19 15:00:00 22.3 4 Noroeste 10 Nordeste 0 1018.6 -- 48
2020-11-19 14:00:00 21.8 3 Este 9 Este 0 1019 -- 52
2020-11-19 13:00:00 20 5 Este 15 Norte 0 1020.1 -- 61
2020-11-19 12:00:00 20 4 Sur 9 Sudoeste 0 1020.6 -- 61
2020-11-19 11:00:00 17.8 4 Sudoeste 13 Oeste 0 1020.3 -- 74
2020-11-19 10:00:00 15.8 5 Noroeste 9 Noroeste 0 1020.1 -- 86
2020-11-19 09:00:00 14.5 2 Este 6 Este 0 1019.5 -- 90
2020-11-19 08:00:00 14.2 3 Oeste 9 Sudoeste 0 1018.9 -- 90
2020-11-19 07:00:00 14.2 0 Calma 15 Oeste 0 1018.4 -- 91
2020-11-19 06:00:00 13.9 6 Oeste 16 Oeste 0 1018 -- 90
2020-11-19 05:00:00 13.8 8 Oeste 16 Oeste 0 1017.8 -- 91
2020-11-19 04:00:00 13.7 6 Sudoeste 12 Sudoeste 0 1018 -- 91
2020-11-19 03:00:00 13.3 6 Oeste 15 Sudoeste 0 1017.9 -- 91
2020-11-19 02:00:00 13 9 Sudoeste 17 Oeste 0 1018 -- 90
2020-11-19 01:00:00 11.5 6 Sudoeste 11 Sudoeste 0 1017.9 -- 92
2020-11-19 00:00:00 12.1 7 Sudoeste 12 Sudoeste 0 1017.9 -- 90
2020-11-18 23:00:00 12.7 8 Sudoeste 12 Sudoeste 0 1017.7 -- 91
2020-11-18 22:00:00 13.1 6 Oeste 10 Oeste 0 1017.3 -- 90
2020-11-18 21:00:00 14.4 5 Oeste 10 Oeste 0 1016.9 -- 89
2020-11-18 20:00:00 15.3 6 Sudoeste 9 Sudoeste 0 1016.7 -- 87
2020-11-18 19:00:00 16.5 5 Oeste 8 Norte 0 1016.2 -- 80
2020-11-18 18:00:00 17.9 6 Norte 10 Norte 0 1015.6 -- 72
2020-11-18 17:00:00 20.1 7 Norte 12 Nordeste 0 1015.2 -- 61
2020-11-18 16:00:00 21.3 5 Norte 12 Nordeste 0 1015.3 -- 57
2020-11-18 15:00:00 20.7 5 Este 12 Nordeste 0 1015.5 -- 55
2020-11-18 14:00:00 19.9 3 Nordeste 13 Noroeste 0 1016.1 -- 59
2020-11-18 13:00:00 18 5 Sudoeste 14 Oeste 0 1017.2 -- 68
2020-11-18 12:00:00 16.1 6 Oeste 12 Sudoeste 0 1018 -- 77
2020-11-18 11:00:00 15.1 5 Oeste 12 Oeste 0 1018.2 -- 84
2020-11-18 10:00:00 13.7 6 Oeste 13 Oeste 0 1018.2 -- 88
2020-11-18 09:00:00 13 5 Oeste 14 Sudoeste 0 1017.6 -- 91
2020-11-18 08:00:00 12.5 6 Oeste 12 Oeste 0 1017.2 -- 94
2020-11-18 07:00:00 12.5 7 Sudoeste 14 Oeste 0 1017 -- 94
2020-11-18 06:00:00 12.3 8 Sudoeste 15 Sudoeste 0 1016.6 -- 93
2020-11-18 05:00:00 12.3 8 Oeste 13 Oeste 0 1016.2 -- 89
2020-11-18 04:00:00 13.3 6 Oeste 12 Oeste 0 1016.4 -- 88
2020-11-18 03:00:00 15.1 6 Oeste 12 Oeste 0 1016.2 -- 83
2020-11-18 02:00:00 16.7 4 Sudoeste 11 Oeste 0 1016.3 -- 82
2020-11-18 01:00:00 17 5 Sudoeste 15 Sudoeste 0 1016.7 -- 81
2020-11-18 00:00:00 16.9 3 Oeste 8 Oeste 0 1016.8 -- 83
2020-11-17 23:00:00 17 0 Calma 5 Oeste 0 1017.2 -- 85
2020-11-17 22:00:00 17.1 3 Oeste 11 Oeste 0 1017 -- 86
2020-11-17 21:00:00 17.2 5 Oeste 11 Oeste 0 1016.8 -- 87
2020-11-17 20:00:00 17 3 Noroeste 12 Noroeste 0 1016.2 -- 89
2020-11-17 19:00:00 17.5 6 Oeste 13 Noroeste 0 1015.5 -- 83
2020-11-17 18:00:00 19 7 Norte 13 Noroeste 0 1014.7 -- 69
2020-11-17 17:00:00 21.5 9 Norte 16 Nordeste 0 1014.4 -- 58
2020-11-17 16:00:00 22.6 11 Nordeste 18 Nordeste 0 1014 -- 51
2020-11-17 15:00:00 22.8 8 Nordeste 17 Norte 0 1014.2 -- 49
2020-11-17 14:00:00 22.2 8 Nordeste 14 Nordeste 0 1014.7 -- 50
2020-11-17 13:00:00 21 5 Nordeste 11 Este 0 1015.4 -- 54
2020-11-17 12:00:00 19.8 5 Nordeste 13 Oeste 0 1016.4 -- 62
2020-11-17 11:00:00 17.9 7 Oeste 14 Oeste 0 1016.7 -- 68
2020-11-17 10:00:00 14.8 7 Oeste 13 Oeste 0 1016.8 -- 82
2020-11-17 09:00:00 12.1 5 Oeste 12 Oeste 0 1016.4 -- 90
2020-11-17 08:00:00 11.1 8 Oeste 15 Oeste 0 1015.7 -- 91
2020-11-17 07:00:00 11.3 6 Oeste 11 Sudoeste 0 1015.4 -- 91
2020-11-17 06:00:00 11.7 7 Oeste 11 Sudoeste 0 1015.1 -- 90
2020-11-17 05:00:00 12.4 5 Oeste 9 Sur 0 1014.9 -- 86
2020-11-17 04:00:00 12.9 7 Sudoeste 12 Sudoeste 0 1015 -- 87
2020-11-17 03:00:00 13.3 5 Oeste 15 Sudoeste 0 1014.9 -- 87
2020-11-17 02:00:00 14 11 Sudoeste 17 Oeste 0 1015.2 -- 84
2020-11-17 01:00:00 14.6 9 Sudoeste 14 Sudoeste 0 1015.5 -- 85
2020-11-17 00:00:00 14.7 6 Oeste 10 Oeste 0 1015.4 -- 87
2020-11-16 23:00:00 15.3 5 Oeste 8 Oeste 0 1015.3 -- 85
2020-11-16 22:00:00 16.6 4 Oeste 7 Sudoeste 0 1014.8 -- 79
2020-11-16 21:00:00 17.7 0 Calma 8 Sudoeste 0 1014.7 -- 77
2020-11-16 20:00:00 18.2 4 Oeste 10 Sudoeste 0 1014.3 -- 70
2020-11-16 19:00:00 18.3 3 Noroeste 12 Norte 0 1013.6 -- 66
2020-11-16 18:00:00 19.5 6 Nordeste 19 Nordeste 0 1012.5 -- 63
2020-11-16 17:00:00 22.1 6 Nordeste 22 Sudeste 0 1011.4 -- 59
2020-11-16 16:00:00 23.9 16 Sudeste 24 Este 0 1010.6 -- 50
2020-11-16 15:00:00 23.8 15 Nordeste 22 Nordeste 0 1010.7 -- 50
2020-11-16 14:00:00 24.7 7 Nordeste 17 Norte 0 1010.8 -- 44
2020-11-16 13:00:00 24.6 6 Este 21 Noroeste 0 1011.3 -- 47
2020-11-16 12:00:00 24.2 10 Norte 24 Noroeste 0 1012 -- 49
2020-11-16 11:00:00 23.5 9 Oeste 19 Sudoeste 0 1011.6 -- 52
2020-11-16 10:00:00 22.1 6 Oeste 23 Sudoeste 0 1011 -- 55
2020-11-16 09:00:00 20.6 14 Oeste 34 Oeste 0 1010.1 -- 59
2020-11-16 08:00:00 17.3 4 Norte 23 Sudoeste 0 1009.8 -- 71
2020-11-16 07:00:00 16.6 8 Oeste 20 Oeste 0 1009.8 -- 74
2020-11-16 06:00:00 17.4 13 Oeste 26 Sudoeste 0 1008.9 -- 68
2020-11-16 05:00:00 18 10 Oeste 15 Sudoeste 0 1009.1 -- 65
2020-11-16 04:00:00 19.4 13 Sudoeste 26 Sudoeste 0 1009.5 -- 59
2020-11-16 03:00:00 19 5 Oeste 15 Oeste 0 1009.6 -- 63
2020-11-16 02:00:00 19.2 9 Oeste 26 Sudoeste 0 1009.8 -- 64
2020-11-16 01:00:00 20.1 15 Sudoeste 24 Sudoeste 0 1009.7 -- 60
2020-11-16 00:00:00 19.5 12 Sudoeste 21 Sudoeste 0 1009.6 -- 64
2020-11-15 23:00:00 19.2 10 Sudoeste 22 Sudoeste 0 1010.2 -- 65
2020-11-15 22:00:00 17.3 6 Sudoeste 13 Sudoeste 0 1010.4 -- 75
2020-11-15 21:00:00 17 6 Sudoeste 14 Sudoeste 0 1010.5 -- 78
2020-11-15 20:00:00 18 7 Sudoeste 14 Oeste 0 1010.5 -- 73
2020-11-15 19:00:00 19.7 4 Sur 8 Sur 0 1010.3 -- 64
2020-11-15 18:00:00 21.7 3 Nordeste 19 Noroeste 0 1009.5 -- 55
2020-11-15 17:00:00 23.5 10 Noroeste 29 Oeste 0 1009.6 -- 48
2020-11-15 16:00:00 24.9 13 Oeste 28 Oeste 0 1009.2 -- 43
2020-11-15 15:00:00 25.1 14 Oeste 36 Oeste 0 1009.1 -- 42
2020-11-15 14:00:00 23.7 17 Noroeste 31 Noroeste 0 1009.9 -- 46
2020-11-15 13:00:00 22.6 10 Oeste 25 Oeste 0 1010.8 -- 47
2020-11-15 12:00:00 21.4 13 Oeste 28 Oeste 0 1011.4 -- 50
2020-11-15 11:00:00 21.1 10 Oeste 28 Sudoeste 0 1011 -- 49
2020-11-15 10:00:00 19 12 Sudoeste 25 Sudoeste 0 1011 -- 60
2020-11-15 09:00:00 16 12 Sudoeste 19 Sudoeste 0 1011.2 -- 74
2020-11-15 08:00:00 13.3 7 Oeste 12 Sudoeste 0 1010.4 -- 87
2020-11-15 07:00:00 14 5 Oeste 11 Oeste 0 1009.8 -- 86
2020-11-15 06:00:00 15.9 4 Oeste 18 Sudoeste 0 1009.5 -- 78
2020-11-15 05:00:00 16.4 9 Sudoeste 17 Sudoeste 0 1009.4 -- 78
2020-11-15 04:00:00 15.3 4 Oeste 15 Oeste 0 1010 -- 86
2020-11-15 03:00:00 16 4 Noroeste 21 Sudoeste 0 1009.9 -- 82
2020-11-15 02:00:00 15.7 5 Sur 14 Sudoeste 0 1010 -- 88
2020-11-15 01:00:00 16.5 6 Sudoeste 14 Oeste 0 1010.3 -- 85
2020-11-15 00:00:00 15.4 3 Oeste 8 Oeste 0 1010.6 -- 92
2020-11-14 23:00:00 15.8 2 Oeste 9 Sur 0 1010.8 -- 90
2020-11-14 22:00:00 15.7 3 Oeste 10 Sudoeste 0 1010.6 -- 91
2020-11-14 21:00:00 16 5 Oeste 6 Oeste 0 1010.4 -- 90
2020-11-14 20:00:00 16.6 2 Sudoeste 6 Oeste 0 1010.2 -- 88
2020-11-14 19:00:00 17.2 3 Oeste 6 Este 0 1009.8 -- 87
2020-11-14 18:00:00 17.8 5 Nordeste 8 Norte 0 1009.5 -- 85
2020-11-14 17:00:00 18.6 5 Norte 8 Norte 0 1009.5 -- 81
2020-11-14 16:00:00 18.1 3 Nordeste 8 Este 0 1009.5 -- 82
2020-11-14 15:00:00 17.9 6 Sudeste 9 Sudeste 0.2 1009.9 -- 83
2020-11-14 14:00:00 17.9 4 Nordeste 7 Nordeste 0 1010.2 -- 78
2020-11-14 13:00:00 17.9 4 Noroeste 7 Noroeste 0 1010.8 -- 79
2020-11-14 12:00:00 17 2 Norte 6 Noroeste 0 1011.5 -- 86
2020-11-14 11:00:00 15.8 4 Este 8 Sudoeste 0 1011.8 -- 91
2020-11-14 10:00:00 14.4 4 Oeste 8 Oeste 0 1011.9 -- 94
2020-11-14 09:00:00 13.4 6 Sudoeste 8 Sudoeste 0 1011.3 -- 94
2020-11-14 08:00:00 12.8 2 Oeste 5 Sudoeste 0 1010.7 -- 94
2020-11-14 07:00:00 12.9 3 Sur 7 Oeste 0 1010.7 -- 94
2020-11-14 06:00:00 12.7 3 Este 5 Norte 0 1010.4 -- 94
2020-11-14 05:00:00 13.2 0 Calma 6 Sudoeste 0 1010.3 -- 94
2020-11-14 04:00:00 13 5 Oeste 8 Sudoeste 0 1010.8 -- 94
2020-11-14 03:00:00 13 0 Calma 5 Norte 0 1011.1 -- 93
2020-11-14 02:00:00 13.7 3 Norte 5 Norte 0 1011.4 -- 93
2020-11-14 01:00:00 14.2 3 Noroeste 8 Sur 0 1011.8 -- 92
2020-11-14 00:00:00 13.7 2 Norte 7 Oeste 0 1011.9 -- 93
2020-11-13 23:00:00 13.5 3 Noroeste 6 Nordeste 0 1011.8 -- 91
2020-11-13 22:00:00 14.7 3 Norte 10 Oeste 0 1011.6 -- 88
2020-11-13 21:00:00 15.2 6 Oeste 8 Oeste 0 1011.1 -- 89
2020-11-13 20:00:00 15.6 5 Oeste 8 Oeste 0 1010.7 -- 85
2020-11-13 19:00:00 16.7 4 Sudoeste 6 Sudoeste 0 1010.3 -- 81
2020-11-13 18:00:00 17.5 5 Norte 9 Norte 0 1009.7 -- 77
2020-11-13 17:00:00 19.2 5 Nordeste 13 Norte 0 1009.7 -- 65
2020-11-13 16:00:00 19.7 8 Norte 15 Nordeste 0 1009.6 -- 62
2020-11-13 15:00:00 20.5 6 Norte 14 Nordeste 0 1009.8 -- 58
2020-11-13 14:00:00 19.7 7 Norte 12 Nordeste 0 1010.3 -- 62
2020-11-13 13:00:00 19 3 Nordeste 8 Nordeste 0 1010.9 -- 65
2020-11-13 12:00:00 17.9 2 Noroeste 6 Oeste 0 1011.7 -- 68
2020-11-13 11:00:00 16.8 3 Oeste 5 Noroeste 0 1011.7 -- 78
2020-11-13 10:00:00 15.8 3 Norte 5 Norte 0 1011.7 -- 84
2020-11-13 09:00:00 14.7 0 Calma 4 Este 0 1011.1 -- 91
2020-11-13 08:00:00 14.4 0 Calma 4 Oeste 0 1010.8 -- 91
2020-11-13 07:00:00 14.3 2 Noroeste 4 Este 0 1010.4 -- 92
2020-11-13 06:00:00 14.4 0 Calma 4 Sudeste 0 1010.5 -- 90
2020-11-13 05:00:00 14.3 2 Oeste 3 Oeste 0 1010.5 -- 90
2020-11-13 04:00:00 14.4 3 Este 6 Oeste 0 1010.9 -- 90
2020-11-13 03:00:00 14.4 3 Oeste 5 Sudoeste 0 1011 -- 88
2020-11-13 02:00:00 14.3 5 Oeste 8 Oeste 0 1011.3 -- 88
2020-11-13 01:00:00 13.8 0 Calma 5 Oeste 0 1011.7 -- 92
2020-11-13 00:00:00 13.6 4 Oeste 9 Oeste 0 1011.7 -- 92
2020-11-12 23:00:00 12.7 4 Oeste 9 Sudoeste 0 1012 -- 92
2020-11-12 22:00:00 12.9 3 Oeste 7 Oeste 0 1012.1 -- 90
2020-11-12 21:00:00 13.8 5 Oeste 8 Oeste 0 1011.7 -- 87
2020-11-12 20:00:00 14.7 6 Sudoeste 12 Oeste 0 1011.5 -- 85
2020-11-12 19:00:00 15.7 6 Sudoeste 9 Sudoeste 0 1011.3 -- 79
2020-11-12 18:00:00 17.3 3 Nordeste 13 Este 0 1010.7 -- 64
2020-11-12 17:00:00 19.2 8 Este 21 Norte 0 1010.5 -- 52
2020-11-12 16:00:00 20.5 10 Norte 18 Norte 0 1010.5 -- 50
2020-11-12 15:00:00 21.1 8 Nordeste 18 Nordeste 0 1010.8 -- 47
2020-11-12 14:00:00 20.4 8 Nordeste 17 Nordeste 0 1011.2 -- 48
2020-11-12 13:00:00 20.2 4 Este 9 Nordeste 0 1012.2 -- 45
2020-11-12 12:00:00 18.3 5 Nordeste 9 Sudoeste 0 1013.1 -- 54
2020-11-12 11:00:00 16.4 5 Sudoeste 13 Sudoeste 0 1013.4 -- 62
2020-11-12 10:00:00 13.8 8 Oeste 18 Sudoeste 0 1013.3 -- 71
2020-11-12 09:00:00 10 3 Sudoeste 11 Oeste 0 1013 -- 88
2020-11-12 08:00:00 8.6 4 Noroeste 10 Oeste 0 1012.7 -- 89
2020-11-12 07:00:00 9 3 Sudoeste 10 Oeste 0 1012.5 -- 89
2020-11-12 06:00:00 9.1 4 Oeste 13 Oeste 0 1012.5 -- 89
2020-11-12 05:00:00 9.4 8 Sudoeste 14 Sudoeste 0 1012.6 -- 90
2020-11-12 04:00:00 9.2 4 Sudoeste 10 Sudoeste 0 1012.8 -- 90
2020-11-12 03:00:00 10.3 5 Sudoeste 9 Sudoeste 0 1013.3 -- 87
2020-11-12 02:00:00 10.3 5 Oeste 12 Oeste 0 1013.6 -- 88
2020-11-12 01:00:00 11 7 Sudoeste 14 Sudoeste 0 1013.9 -- 87
2020-11-12 00:00:00 12 8 Sudoeste 12 Sudoeste 0 1013.9 -- 85
2020-11-11 23:00:00 12.2 7 Sudoeste 12 Oeste 0 1013.8 -- 85
2020-11-11 22:00:00 13.2 7 Sudoeste 13 Oeste 0 1013.8 -- 84
2020-11-11 21:00:00 13.8 3 Oeste 10 Oeste 0 1013.3 -- 86
2020-11-11 20:00:00 15.5 3 Oeste 13 Sur 0 1013.3 -- 79
2020-11-11 19:00:00 17.3 5 Sur 12 Sur 0 1012.6 -- 69
2020-11-11 18:00:00 18.9 5 Sudeste 15 Sudeste 0 1012.2 -- 61
2020-11-11 17:00:00 20.5 10 Este 20 Sudeste 0 1012 -- 55
2020-11-11 16:00:00 22 6 Nordeste 11 Este 0 1012.2 -- 40
2020-11-11 15:00:00 22.2 3 Sudeste 12 Norte 0 1012.4 -- 38
2020-11-11 14:00:00 20.9 5 Nordeste 10 Nordeste 0 1013.3 -- 44
2020-11-11 13:00:00 19.6 4 Nordeste 12 Nordeste 0 1014.2 -- 55
2020-11-11 12:00:00 19 3 Este 10 Sur 0 1015.3 -- 56
2020-11-11 11:00:00 16.3 5 Sudoeste 15 Sudoeste 0 1015.9 -- 65
2020-11-11 10:00:00 13.2 9 Sudoeste 15 Sur 0 1016.3 -- 76
2020-11-11 09:00:00 11 9 Sudoeste 19 Oeste 0 1016.5 -- 85
2020-11-11 08:00:00 9.5 8 Oeste 13 Oeste 0 1016.2 -- 89
2020-11-11 07:00:00 10 7 Oeste 13 Oeste 0 1016.1 -- 89
2020-11-11 06:00:00 10.1 6 Oeste 14 Oeste 0 1016.3 -- 89
2020-11-11 05:00:00 11 9 Sudoeste 14 Sudoeste 0 1016.4 -- 88
2020-11-11 04:00:00 10.6 7 Oeste 14 Oeste 0 1016.6 -- 91
2020-11-11 03:00:00 10.4 6 Oeste 10 Oeste 0 1016.7 -- 90
2020-11-11 02:00:00 10.7 5 Oeste 13 Oeste 0 1017.1 -- 89
2020-11-11 01:00:00 11.4 8 Oeste 16 Oeste 0 1017.2 -- 87
2020-11-11 00:00:00 11.8 9 Sudoeste 15 Oeste 0 1017 -- 87
2020-11-10 23:00:00 11.8 6 Oeste 12 Oeste 0 1016.9 -- 89
2020-11-10 22:00:00 12.8 5 Sudoeste 10 Oeste 0 1016.8 -- 87
2020-11-10 21:00:00 14.2 3 Sudoeste 14 Oeste 0 1016.1 -- 81
2020-11-10 20:00:00 15.4 6 Oeste 10 Noroeste 0 1015.8 -- 77
2020-11-10 19:00:00 16.7 4 Oeste 7 Sudoeste 0 1015.2 -- 69
2020-11-10 18:00:00 18.4 3 Nordeste 14 Norte 0 1014.7 -- 62
2020-11-10 17:00:00 20.9 10 Norte 15 Norte 0 1014.3 -- 50
2020-11-10 16:00:00 21.7 9 Norte 18 Noroeste 0 1013.9 -- 46
2020-11-10 15:00:00 21.9 10 Norte 20 Nordeste 0 1014 -- 42
2020-11-10 14:00:00 21.4 5 Norte 15 Nordeste 0 1014.4 -- 44
2020-11-10 13:00:00 20.7 7 Norte 13 Nordeste 0 1015.3 -- 48
2020-11-10 12:00:00 19.9 4 Nordeste 9 Sudeste 0 1015.8 -- 51
2020-11-10 11:00:00 18.6 2 Sudeste 15 Sudoeste 0 1015.8 -- 53
2020-11-10 10:00:00 15.1 10 Sudoeste 15 Sudoeste 0 1015.7 -- 67
2020-11-10 09:00:00 12.3 5 Oeste 12 Sudoeste 0 1015.1 -- 83
2020-11-10 08:00:00 10.6 5 Sudoeste 10 Oeste 0 1014.2 -- 88
2020-11-10 07:00:00 10.9 3 Oeste 9 Oeste 0 1013.7 -- 88
2020-11-10 06:00:00 11.5 5 Oeste 15 Sudoeste 0 1013.5 -- 85
2020-11-10 05:00:00 11.6 3 Noroeste 13 Oeste 0 1013.2 -- 86
2020-11-10 04:00:00 12.2 6 Sudoeste 12 Sudoeste 0 1013.2 -- 86
2020-11-10 03:00:00 11.8 3 Oeste 10 Sudoeste 0 1013.2 -- 89
2020-11-10 02:00:00 12.6 4 Oeste 8 Sudoeste 0 1013.3 -- 86
2020-11-10 01:00:00 13.2 2 Sudoeste 9 Sudoeste 0 1013.3 -- 86
2020-11-10 00:00:00 13.8 3 Sudoeste 8 Norte 0 1013.2 -- 83
2020-11-09 23:00:00 14.3 5 Sudeste 15 Sudoeste 0 1013.1 -- 82
2020-11-09 22:00:00 15.1 9 Sudoeste 18 Oeste 0 1012.8 -- 71
2020-11-09 21:00:00 15.1 8 Oeste 21 Sudoeste 0 1012.1 -- 73
2020-11-09 20:00:00 16 10 Sudoeste 15 Sudoeste 0 1011.7 -- 71
2020-11-09 19:00:00 18 5 Oeste 8 Sudoeste 0 1011.1 -- 60
2020-11-09 18:00:00 20.5 5 Norte 10 Nordeste 0 1010.3 -- 48
2020-11-09 17:00:00 23.1 6 Nordeste 10 Nordeste 0 1010 -- 42
2020-11-09 16:00:00 24 4 Este 12 Nordeste 0 1009.9 -- 36
2020-11-09 15:00:00 23.5 5 Nordeste 12 Nordeste 0 1010 -- 35
2020-11-09 14:00:00 22.8 6 Este 10 Este 0 1010.5 -- 37
2020-11-09 13:00:00 21.8 4 Sudeste 9 Sudeste 0 1011.5 -- 45
2020-11-09 12:00:00 19 4 Este 9 Este 0 1012.2 -- 59
2020-11-09 11:00:00 16.9 2 Sudoeste 11 Oeste 0 1012.5 -- 67
2020-11-09 10:00:00 12.6 3 Oeste 7 Oeste 0 1012.5 -- 88
2020-11-09 09:00:00 11 5 Oeste 8 Sudoeste 0 1012.2 -- 91
2020-11-09 08:00:00 10.1 2 Sudoeste 6 Oeste 0 1011.4 -- 91
2020-11-09 07:00:00 10.2 5 Oeste 10 Sudoeste 0 1011.2 -- 90
2020-11-09 06:00:00 10.1 4 Sudoeste 8 Sudoeste 0 1010.9 -- 90
2020-11-09 05:00:00 10.2 2 Sudoeste 8 Sudoeste 0 1011 -- 90
2020-11-09 04:00:00 10.6 3 Sudoeste 16 Oeste 0 1011 -- 89
2020-11-09 03:00:00 10.8 8 Oeste 16 Oeste 0 1011.3 -- 90
2020-11-09 02:00:00 11.1 6 Oeste 11 Oeste 0 1011.3 -- 89
2020-11-09 01:00:00 11.4 5 Oeste 11 Sur 0 1011.8 -- 87
2020-11-09 00:00:00 12.2 4 Sur 10 Sudoeste 0 1012 -- 87
2020-11-08 23:00:00 12.9 7 Sudoeste 11 Sudoeste 0 1011.8 -- 84
2020-11-08 22:00:00 13.1 6 Sudoeste 11 Sudoeste 0 1011.4 -- 84
2020-11-08 21:00:00 13.6 5 Oeste 8 Oeste 0 1011.4 -- 82
2020-11-08 20:00:00 15.3 6 Sudoeste 10 Sudoeste 0 1011.2 -- 76
2020-11-08 19:00:00 16.8 6 Noroeste 11 Sudeste 0 1010.8 -- 66
2020-11-08 18:00:00 19.3 4 Este 18 Sudeste 0 1010.4 -- 55
2020-11-08 17:00:00 21.7 10 Sudeste 19 Sudeste 0 1010.5 -- 42
2020-11-08 16:00:00 22.5 5 Nordeste 10 Nordeste 0 1010.6 -- 40
2020-11-08 15:00:00 22.1 5 Este 11 Este 0 1010.9 -- 42
2020-11-08 14:00:00 21.5 3 Norte 9 Nordeste 0 1011.7 -- 40
2020-11-08 13:00:00 20.4 5 Nordeste 9 Nordeste 0 1012.5 -- 43
2020-11-08 12:00:00 19 0 Calma 8 Sudeste 0 1013.5 -- 52
2020-11-08 11:00:00 16.5 3 Este 11 Oeste 0 1014 -- 58
2020-11-08 10:00:00 13.1 5 Sudoeste 15 Sudoeste 0 1014 -- 71
2020-11-08 09:00:00 10.6 7 Sudoeste 19 Oeste 0 1013.9 -- 79
2020-11-08 08:00:00 9.5 8 Oeste 15 Sudoeste 0 1013.4 -- 84
2020-11-08 07:00:00 9.7 8 Oeste 15 Sudoeste 0 1013.2 -- 85
2020-11-08 06:00:00 10 8 Oeste 13 Oeste 0 1013.5 -- 85
2020-11-08 05:00:00 10.8 7 Oeste 15 Oeste 0 1013.4 -- 81
2020-11-08 04:00:00 11 10 Oeste 16 Oeste 0 1013.6 -- 82
2020-11-08 03:00:00 11.5 6 Oeste 15 Oeste 0 1013.7 -- 81
2020-11-08 02:00:00 11.8 8 Oeste 13 Oeste 0 1013.5 -- 82
2020-11-08 01:00:00 12.9 4 Oeste 15 Oeste 0 1013.7 -- 76
2020-11-08 00:00:00 12.7 3 Este 12 Sudeste 0 1013.5 -- 82
2020-11-07 23:00:00 14.2 7 Oeste 19 Sudoeste 0 1013.3 -- 73
2020-11-07 22:00:00 13.4 8 Oeste 13 Oeste 0 1013.1 -- 82
2020-11-07 21:00:00 14.5 5 Oeste 9 Oeste 0 1012.8 -- 79
2020-11-07 20:00:00 16.3 5 Sudoeste 8 Oeste 0 1012.3 -- 76
2020-11-07 19:00:00 17.4 4 Sur 12 Sudoeste 0 1011.5 -- 73
2020-11-07 18:00:00 19.6 4 Sur 10 Norte 0 1010.4 -- 60
2020-11-07 17:00:00 21.8 2 Sudoeste 8 Sudeste 0 1009.9 -- 52
2020-11-07 16:00:00 19.4 4 Sudeste 12 Este 0 1009.9 -- 55
2020-11-07 15:00:00 18.6 8 Nordeste 30 Norte 0 1009.6 -- 62
2020-11-07 14:00:00 18.6 20 Norte 40 Noroeste 0 1009.8 -- 76
2020-11-07 13:00:00 20.2 4 Nordeste 8 Norte 0 1009.3 -- 69
2020-11-07 12:00:00 18.1 4 Noroeste 9 Noroeste 0 1009.5 -- 88
2020-11-07 11:00:00 16.3 5 Este 12 Nordeste 0 1009.3 -- 92
2020-11-07 10:00:00 15.4 6 Norte 10 Nordeste 0 1008.6 -- 95
2020-11-07 09:00:00 15 2 Norte 13 Nordeste 0 1007.7 -- 95
2020-11-07 08:00:00 14.5 9 Nordeste 14 Norte 0.8 1006.1 -- 95
2020-11-07 07:00:00 14.7 4 Sudeste 82 Sudoeste 4 1006.4 -- 95
2020-11-07 06:00:00 18.1 6 Sudoeste 9 Este 0.2 1005 -- 95
2020-11-07 05:00:00 18.2 5 Este 17 Norte 0.2 1004.9 -- 95
2020-11-07 04:00:00 18.3 10 Norte 19 Norte 0.2 1004.9 -- 95
2020-11-07 03:00:00 18.5 9 Nordeste 19 Norte 0 1005.8 -- 94
2020-11-07 02:00:00 18.4 11 Nordeste 24 Norte 0 1006.2 -- 94
2020-11-07 01:00:00 18.5 13 Norte 27 Norte 0 1006.9 -- 94
2020-11-07 00:00:00 18.5 14 Nordeste 26 Nordeste 0 1007.3 -- 94
2020-11-06 23:00:00 18.6 13 Nordeste 24 Nordeste 0 1007.7 -- 95
2020-11-06 22:00:00 18.6 13 Norte 23 Norte 0 1008.2 -- 95
2020-11-06 21:00:00 18.6 11 Norte 19 Norte 0 1008.4 -- 95
2020-11-06 20:00:00 18.6 10 Norte 21 Norte 0 1008.8 -- 94
2020-11-06 19:00:00 18.8 13 Norte 22 Norte 0 1008.6 -- 94
2020-11-06 18:00:00 19 11 Norte 26 Nordeste 0 1008.6 -- 93
2020-11-06 17:00:00 19.6 14 Norte 73 Este 0 1008.9 -- 90
2020-11-06 16:00:00 20.4 15 Norte 27 Norte 0 1008.7 -- 87
2020-11-06 15:00:00 21 12 Nordeste 25 Norte 0 1009.2 -- 83
2020-11-06 14:00:00 20.9 16 Nordeste 30 Este 0 1010 -- 83
2020-11-06 13:00:00 20.9 13 Este 23 Nordeste 0 1010.8 -- 86
2020-11-06 12:00:00 19.8 7 Nordeste 12 Nordeste 0 1011.2 -- 92
2020-11-06 11:00:00 18.3 0 Calma 5 Sudeste 0 1011.8 0.9 94
2020-11-06 10:00:00 17.7 0 Calma 5 Oeste 0 1011.3 -- 95
2020-11-06 09:00:00 17 0 Calma 6 Sur 0.2 1011.2 -- 95
2020-11-06 08:00:00 16.8 3 Sur 6 Sur 0 1010.9 -- 94
2020-11-06 07:00:00 16.7 2 Noroeste 9 Oeste 0 1010.8 -- 94
2020-11-06 06:00:00 16.5 4 Sudoeste 8 Sudoeste 0.2 1010.8 -- 93
2020-11-06 05:00:00 16.3 5 Sudoeste 13 Sudoeste 0 1010.7 -- 94
2020-11-06 04:00:00 16.2 5 Sudoeste 9 Sudoeste 0 1010.8 -- 93
2020-11-06 03:00:00 16.1 3 Sudeste 9 Norte 0 1011.2 -- 92
2020-11-06 02:00:00 16.1 4 Norte 14 Norte 0 1011.2 -- 92
2020-11-06 01:00:00 16.2 4 Norte 11 Norte 0 1011.1 -- 93
2020-11-06 00:00:00 16 5 Norte 14 Norte 0 1011 -- 94
2020-11-05 23:00:00 16.1 2 Noroeste 8 Noroeste 0 1010.9 -- 94
2020-11-05 22:00:00 16.2 3 Nordeste 7 Nordeste 0 1011.2 -- 94
2020-11-05 21:00:00 16.2 3 Oeste 8 Noroeste 0 1010.6 -- 94
2020-11-05 20:00:00 16.5 4 Este 14 Sudeste 0 1010.5 -- 93
2020-11-05 19:00:00 16.3 3 Sur 17 Noroeste 0 1010 -- 93
2020-11-05 18:00:00 16.3 5 Norte 14 Norte 0 1009.7 -- 94
2020-11-05 17:00:00 16.4 3 Nordeste 13 Norte 0.2 1009.6 -- 93
2020-11-05 16:00:00 16.2 5 Sudeste 20 Noroeste 0 1009.8 -- 92
2020-11-05 15:00:00 15.5 4 Sudeste 15 Nordeste 0 1010.4 -- 94
2020-11-05 14:00:00 15.3 6 Este 15 Este 0.2 1010.8 -- 94
2020-11-05 13:00:00 15.8 4 Norte 54 Nordeste 1 1011.2 -- 95
2020-11-05 12:00:00 15.4 5 Sudoeste 19 Oeste 0.8 1011.8 -- 95
2020-11-05 11:00:00 14.6 10 Este 37 Norte 6.4 1012.3 -- 95
2020-11-05 10:00:00 14.5 24 Norte 43 Norte 5.6 1012.1 -- 95
2020-11-05 09:00:00 14.2 7 Noroeste 23 Sudoeste 9.2 1011.8 -- 94
2020-11-05 08:00:00 14.1 11 Sudoeste 16 Sudoeste 1.2 1011.3 -- 94
2020-11-05 07:00:00 14 6 Sudoeste 25 Norte 1.4 1011.3 -- 94
2020-11-05 06:00:00 13.8 9 Norte 25 Nordeste 3.8 1011.4 -- 94
2020-11-05 05:00:00 13.7 4 Nordeste 16 Norte 1.2 1011.6 -- 94
2020-11-05 04:00:00 13.3 5 Este 14 Norte 1.4 1011.9 -- 94
2020-11-05 03:00:00 13.1 9 Nordeste 23 Nordeste 0.2 1011.8 -- 93
2020-11-05 02:00:00 13.4 10 Nordeste 34 Norte 0.4 1011.5 -- 94
2020-11-05 01:00:00 13.4 9 Norte 34 Norte 0.2 1011.6 -- 94
2020-11-05 00:00:00 13.2 11 Norte 24 Norte 0.2 1011.2 -- 93
2020-11-04 23:00:00 12.5 5 Oeste 25 Norte 1 1011.2 -- 92
2020-11-04 22:00:00 12.4 9 Noroeste 21 Norte 2 1011.2 -- 92
2020-11-04 21:00:00 12.5 8 Noroeste 20 Norte 2 1010.5 -- 92
2020-11-04 20:00:00 12.5 10 Noroeste 21 Noroeste 2.2 1010.2 -- 92
2020-11-04 19:00:00 12.6 8 Noroeste 20 Norte 1 1009.6 -- 92
2020-11-04 18:00:00 12.7 4 Norte 14 Noroeste 0 1009.2 -- 92
2020-11-04 17:00:00 12.8 3 Norte 13 Noroeste 0 1009.6 -- 92
2020-11-04 16:00:00 13 6 Norte 14 Noroeste 0.4 1009.6 -- 92
2020-11-04 15:00:00 13.2 9 Norte 21 Norte 0 1009.9 -- 90
2020-11-04 14:00:00 13.8 9 Nordeste 19 Nordeste 0 1009.9 -- 86
2020-11-04 13:00:00 13.9 12 Nordeste 30 Norte 0 1010.6 -- 81
2020-11-04 12:00:00 14 12 Nordeste 21 Nordeste 0 1011.2 -- 86
2020-11-04 11:00:00 13.9 9 Norte 21 Nordeste 0 1011.1 0.6 88
2020-11-04 10:00:00 14.1 7 Nordeste 18 Nordeste 0.2 1011.1 -- 88
2020-11-04 09:00:00 14 4 Nordeste 13 Nordeste 0 1010.8 -- 87
2020-11-04 08:00:00 14.2 4 Nordeste 11 Norte 0.6 1010.5 -- 89
2020-11-04 07:00:00 15.1 9 Norte 17 Norte 0 1010.4 -- 81
2020-11-04 06:00:00 15.3 6 Norte 19 Norte 0 1010.3 -- 76
2020-11-04 05:00:00 15.8 12 Norte 21 Norte 0 1010.9 -- 70
2020-11-04 04:00:00 16.7 3 Norte 11 Nordeste 0 1011.4 -- 74
2020-11-04 03:00:00 16.9 4 Nordeste 13 Nordeste 0 1012.1 -- 76
2020-11-04 02:00:00 17 5 Nordeste 10 Norte 0 1012.4 -- 78
2020-11-04 01:00:00 17.3 5 Nordeste 14 Nordeste 0 1013 -- 81
2020-11-04 00:00:00 17.6 5 Nordeste 11 Nordeste 0 1013.5 -- 80
2020-11-03 23:00:00 17.4 4 Nordeste 9 Este 0 1013.8 -- 83
2020-11-03 22:00:00 17.3 4 Oeste 8 Oeste 0 1014.1 -- 84
2020-11-03 21:00:00 17.2 3 Nordeste 7 Norte 0 1014 -- 83
2020-11-03 20:00:00 16.8 6 Norte 12 Norte 0 1014 -- 86
2020-11-03 19:00:00 18 8 Norte 14 Norte 0 1013.7 -- 80
2020-11-03 18:00:00 19.4 5 Nordeste 20 Norte 0 1013.3 -- 72
2020-11-03 17:00:00 20 12 Norte 22 Norte 0 1013 -- 70
2020-11-03 16:00:00 20.5 12 Nordeste 20 Nordeste 0 1013 -- 65
2020-11-03 15:00:00 20.9 11 Norte 18 Nordeste 0 1013.1 -- 61
2020-11-03 14:00:00 20.5 8 Nordeste 15 Nordeste 0 1013.4 -- 64
2020-11-03 13:00:00 20.5 3 Noroeste 7 Oeste 0 1014.2 -- 64
2020-11-03 12:00:00 18.5 3 Oeste 9 Oeste 0 1014.7 -- 70
2020-11-03 11:00:00 17.3 5 Oeste 8 Oeste 0 1014.8 -- 74
2020-11-03 10:00:00 16 5 Oeste 13 Oeste 0 1014.5 -- 79
2020-11-03 09:00:00 14.9 7 Sudoeste 19 Oeste 0 1014.1 -- 81
2020-11-03 08:00:00 14.2 10 Oeste 19 Oeste 0 1013.2 -- 82
2020-11-03 07:00:00 14.3 8 Oeste 17 Oeste 0 1012.9 -- 83
2020-11-03 06:00:00 14.4 9 Oeste 15 Sudoeste 0 1012.7 -- 83
2020-11-03 05:00:00 14.8 6 Oeste 13 Oeste 0 1012.3 -- 85
2020-11-03 04:00:00 14.8 8 Oeste 13 Oeste 0 1012.1 -- 84
2020-11-03 03:00:00 15 6 Oeste 14 Oeste 0 1012.1 -- 88
2020-11-03 02:00:00 15.5 7 Oeste 12 Oeste 0 1011.9 -- 87
2020-11-03 01:00:00 15.5 6 Oeste 12 Oeste 0 1012.2 -- 87
2020-11-03 00:00:00 15.6 6 Oeste 9 Oeste 0 1012.2 -- 88
2020-11-02 23:00:00 16.2 6 Oeste 9 Oeste 0 1012.2 -- 87
2020-11-02 22:00:00 17.5 2 Oeste 8 Nordeste 0 1012.1 -- 88
2020-11-02 21:00:00 17.4 5 Nordeste 9 Nordeste 0 1011.8 -- 89
2020-11-02 20:00:00 17.9 4 Nordeste 15 Nordeste 0 1011.2 -- 83
2020-11-02 19:00:00 19.2 11 Nordeste 21 Norte 0 1010.2 -- 77
2020-11-02 18:00:00 21.9 8 Nordeste 17 Este 0 1009.4 -- 62
2020-11-02 17:00:00 25.9 6 Nordeste 16 Nordeste 0 1009 -- 45
2020-11-02 16:00:00 27.4 10 Norte 18 Norte 0 1009 -- 36
2020-11-02 15:00:00 27.8 7 Nordeste 17 Nordeste 0 1009.2 -- 31
2020-11-02 14:00:00 26.9 9 Nordeste 15 Este 0 1010 -- 30
2020-11-02 13:00:00 25.4 7 Este 12 Nordeste 0 1011 -- 33
2020-11-02 12:00:00 23.4 5 Nordeste 9 Este 0 1011.8 -- 39
2020-11-02 11:00:00 21.1 4 Este 7 Este 0 1012.3 -- 44
2020-11-02 10:00:00 17.8 5 Sudoeste 15 Sudoeste 0 1012.7 -- 49
2020-11-02 09:00:00 12.9 6 Sudoeste 9 Oeste 0 1012.5 -- 68
2020-11-02 08:00:00 10.5 4 Sudoeste 9 Oeste 0 1011.8 -- 78
2020-11-02 07:00:00 11.1 5 Sudoeste 10 Sudoeste 0 1011.6 -- 74
2020-11-02 06:00:00 10.5 5 Oeste 11 Sudoeste 0 1011.6 -- 79
2020-11-02 05:00:00 11.1 6 Sudoeste 11 Sudoeste 0 1011.6 -- 80
2020-11-02 04:00:00 11.7 6 Sudoeste 10 Sudoeste 0 1011.6 -- 81
2020-11-02 03:00:00 11.6 4 Oeste 11 Oeste 0 1011.9 -- 83
2020-11-02 02:00:00 12.7 6 Sudoeste 14 Sudoeste 0 1012.1 -- 80
2020-11-02 01:00:00 13 10 Oeste 14 Oeste 0 1012.3 -- 79
2020-11-02 00:00:00 13.5 8 Sudoeste 12 Oeste 0 1012.6 -- 75
2020-11-01 23:00:00 13.7 8 Oeste 11 Oeste 0 1012.7 -- 78
2020-11-01 22:00:00 15.1 7 Sudoeste 9 Sudoeste 0 1012.5 -- 79
2020-11-01 21:00:00 17.5 5 Sudeste 10 Sudeste 0 1012.1 -- 76
2020-11-01 20:00:00 18.5 4 Sudeste 13 Este 0 1011.8 -- 67
2020-11-01 19:00:00 20.3 10 Este 16 Este 0 1011.1 -- 67
2020-11-01 18:00:00 23.7 8 Este 15 Norte 0 1010.4 -- 47
2020-11-01 17:00:00 28.1 5 Nordeste 13 Norte 0 1010.4 -- 29
2020-11-01 16:00:00 28.5 5 Nordeste 10 Este 0 1010.6 -- 24
2020-11-01 15:00:00 28.5 4 Este 13 Nordeste 0 1011 -- 25
2020-11-01 14:00:00 27 5 Nordeste 11 Este 0 1011.7 -- 26
2020-11-01 13:00:00 25.1 5 Este 14 Nordeste 0 1012.8 -- 30
2020-11-01 12:00:00 23.5 6 Este 12 Este 0 1013.8 -- 35
2020-11-01 11:00:00 21.8 3 Sudoeste 9 Sudoeste 0 1014.1 -- 38
2020-11-01 10:00:00 18 7 Sudoeste 13 Oeste 0 1014.1 -- 50
2020-11-01 09:00:00 12.6 5 Oeste 9 Oeste 0 1013.8 -- 77
2020-11-01 08:00:00 10.2 3 Sudoeste 9 Sudoeste 0 1013.2 -- 81
2020-11-01 07:00:00 10.3 5 Oeste 9 Sur 0 1013 -- 83
2020-11-01 06:00:00 10.9 4 Oeste 10 Sudoeste 0 1013.1 -- 81
2020-11-01 05:00:00 11.5 5 Sudoeste 12 Sudoeste 0 1013 -- 80
2020-11-01 04:00:00 11.4 7 Oeste 12 Sudoeste 0 1013.2 -- 85
2020-11-01 03:00:00 12.1 5 Sudoeste 12 Oeste 0 1013.4 -- 85
2020-11-01 02:00:00 12.7 6 Oeste 14 Sudoeste 0 1013.4 -- 83
2020-11-01 01:00:00 13.5 7 Sudoeste 13 Oeste 0 1013.7 -- 83
2020-11-01 00:00:00 14.1 7 Sudoeste 12 Sudoeste 0 1013.7 -- 84
2020-10-31 23:00:00 14.7 8 Sudoeste 12 Sudoeste 0 1013.9 -- 84
2020-10-31 22:00:00 15 6 Oeste 8 Oeste 0 1014.1 -- 82
2020-10-31 21:00:00 17.1 3 Sudeste 7 Sudeste 0 1013.7 -- 79
2020-10-31 20:00:00 18.4 4 Noroeste 16 Noroeste 0 1013 -- 75
2020-10-31 19:00:00 19.2 6 Norte 16 Nordeste 0 1012.2 -- 66
2020-10-31 18:00:00 21.1 10 Nordeste 17 Nordeste 0 1011.5 -- 57
2020-10-31 17:00:00 24.4 10 Nordeste 18 Norte 0 1011.2 -- 50
2020-10-31 16:00:00 27.7 8 Norte 15 Nordeste 0 1010.9 -- 31
2020-10-31 15:00:00 27.4 7 Nordeste 13 Nordeste 0 1011.2 -- 32
2020-10-31 14:00:00 26.1 7 Nordeste 14 Nordeste 0 1012.1 -- 32
2020-10-31 13:00:00 25.1 5 Este 10 Nordeste 0 1013 -- 32
2020-10-31 12:00:00 23.1 4 Este 9 Sudeste 0 1013.8 -- 38
2020-10-31 11:00:00 20 3 Sudeste 9 Este 0 1014.6 -- 48
2020-10-31 10:00:00 16.7 5 Sur 10 Sudoeste 0 1014.9 -- 56
2020-10-31 09:00:00 12.5 5 Sudoeste 9 Sudoeste 0 1014.8 -- 75
2020-10-31 08:00:00 9.8 4 Sudoeste 10 Sudoeste 0 1014.5 -- 83
2020-10-31 07:00:00 10.1 5 Sudoeste 14 Sudoeste 0 1014.3 -- 81
2020-10-31 06:00:00 10 8 Oeste 14 Oeste 0 1014.4 -- 84
2020-10-31 05:00:00 10.5 8 Oeste 13 Oeste 0 1014.2 -- 85
2020-10-31 04:00:00 11.3 5 Sudoeste 12 Oeste 0 1014.3 -- 85
2020-10-31 03:00:00 12.9 9 Oeste 13 Oeste 0 1014.5 -- 88
2020-10-31 02:00:00 13.3 8 Sudoeste 12 Sudoeste 0 1014.8 -- 87
2020-10-31 01:00:00 14.6 7 Oeste 13 Sudoeste 0 1014.9 -- 75
2020-10-31 00:00:00 16.9 5 Sudoeste 10 Sudoeste 0 1014.8 -- 80
2020-10-30 23:00:00 16.8 4 Oeste 6 Oeste 0 1015.2 -- 84
2020-10-30 22:00:00 17.6 3 Sur 7 Sudoeste 0 1015.1 -- 85
2020-10-30 21:00:00 17.5 2 Sudeste 14 Norte 0 1014.7 -- 86
2020-10-30 20:00:00 18 9 Norte 17 Norte 0 1014.4 -- 83
2020-10-30 19:00:00 19.7 9 Nordeste 14 Nordeste 0 1013.7 -- 72
2020-10-30 18:00:00 23.2 3 Norte 13 Norte 0 1012.8 -- 55
2020-10-30 17:00:00 26.5 7 Norte 16 Norte 0 1012.3 -- 38
2020-10-30 16:00:00 27.3 10 Norte 17 Norte 0 1012.4 -- 33
2020-10-30 15:00:00 27.6 8 Norte 18 Norte 0 1012.9 -- 31
2020-10-30 14:00:00 26.1 8 Nordeste 14 Este 0 1013.6 -- 32
2020-10-30 13:00:00 24.3 8 Nordeste 13 Este 0 1014.6 -- 42
2020-10-30 12:00:00 22.2 4 Este 8 Este 0 1015.4 -- 46
2020-10-30 11:00:00 19.7 3 Oeste 9 Sur 0 1015.8 -- 51
2020-10-30 10:00:00 16.3 4 Sudoeste 12 Oeste 0 1016.1 -- 65
2020-10-30 09:00:00 11.8 3 Oeste 8 Oeste 0 1016.1 -- 83
2020-10-30 08:00:00 9.4 0 Calma 8 Oeste 0 1015.6 -- 88
2020-10-30 07:00:00 10.2 5 Sudoeste 9 Sudoeste 0 1015.5 -- 87
2020-10-30 06:00:00 10.2 5 Oeste 8 Sudoeste 0 1015.6 -- 88
2020-10-30 05:00:00 10.7 4 Sudoeste 9 Sudoeste 0 1015.7 -- 87
2020-10-30 04:00:00 10.4 4 Sudoeste 12 Oeste 0 1015.7 -- 86
2020-10-30 03:00:00 11.3 6 Sudoeste 8 Sudoeste 0 1015.7 -- 85
2020-10-30 02:00:00 11.9 3 Sur 8 Sur 0 1015.9 -- 82
2020-10-30 01:00:00 12.5 6 Oeste 10 Oeste 0 1015.9 -- 81
2020-10-30 00:00:00 12.9 6 Oeste 13 Sudoeste 0 1016.1 -- 79
2020-10-29 23:00:00 13.6 5 Sudoeste 10 Oeste 0 1016.2 -- 79
2020-10-29 22:00:00 14.3 7 Sudoeste 9 Sudoeste 0 1016 -- 76
2020-10-29 21:00:00 15.8 6 Oeste 10 Oeste 0 1015.3 -- 71
2020-10-29 20:00:00 17.9 6 Oeste 13 Sudoeste 0 1015 -- 64
2020-10-29 19:00:00 19 8 Sudoeste 12 Sudoeste 0 1014.6 -- 60
2020-10-29 18:00:00 21.6 6 Norte 18 Norte 0 1013.9 -- 50
2020-10-29 17:00:00 24.5 10 Norte 22 Norte 0 1013.6 -- 38
2020-10-29 16:00:00 25.3 10 Nordeste 17 Nordeste 0 1013.4 -- 35
2020-10-29 15:00:00 25.3 8 Este 17 Este 0 1013.6 -- 34
2020-10-29 14:00:00 24.8 6 Norte 13 Nordeste 0 1014.2 -- 34
2020-10-29 13:00:00 23.7 3 Noroeste 14 Nordeste 0 1015.5 -- 37
2020-10-29 12:00:00 21.8 4 Nordeste 12 Nordeste 0 1016.8 -- 44
2020-10-29 11:00:00 20.6 4 Sur 9 Sudeste 0 1016.8 -- 46
2020-10-29 10:00:00 17.2 4 Sudoeste 10 Sudoeste 0 1016.5 -- 58
2020-10-29 09:00:00 13.4 3 Sudeste 8 Oeste 0 1016 -- 77
2020-10-29 08:00:00 10.3 4 Sudoeste 12 Oeste 0 1015.2 -- 84
2020-10-29 07:00:00 10.7 4 Oeste 10 Oeste 0 1014.8 -- 83
2020-10-29 06:00:00 10.7 4 Sudoeste 10 Sudoeste 0 1014.6 -- 85
2020-10-29 05:00:00 10.5 4 Oeste 10 Sudoeste 0 1014.3 -- 84
2020-10-29 04:00:00 11.8 6 Sudoeste 12 Sudoeste 0 1014.2 -- 80
2020-10-29 03:00:00 11.7 2 Sudoeste 13 Sudoeste 0 1013.6 -- 80
2020-10-29 02:00:00 12.6 8 Sudoeste 15 Oeste 0 1013.3 -- 77
2020-10-29 01:00:00 12.4 6 Oeste 10 Oeste 0 1013.1 -- 79
2020-10-29 00:00:00 13.4 6 Sudoeste 11 Oeste 0 1013.4 -- 76
2020-10-28 23:00:00 14.1 6 Oeste 8 Oeste 0 1013.3 -- 73
2020-10-28 22:00:00 15.9 0 Calma 10 Norte 0 1012.8 -- 67
2020-10-28 21:00:00 17.2 5 Este 9 Este 0 1012.2 -- 64
2020-10-28 20:00:00 19 5 Sudeste 13 Sudeste 0 1011.1 -- 54
2020-10-28 19:00:00 20.9 3 Sur 10 Sudeste 0 1009.9 -- 47
2020-10-28 18:00:00 24.1 4 Norte 6 Norte 0 1008.9 -- 37
2020-10-28 17:00:00 26.4 5 Este 12 Este 0 1008.8 -- 31
2020-10-28 16:00:00 27.3 4 Oeste 11 Noroeste 0 1008.9 -- 26
2020-10-28 15:00:00 26.4 3 Nordeste 12 Este 0 1009 -- 28
2020-10-28 14:00:00 25 3 Nordeste 11 Nordeste 0 1009.6 -- 29
2020-10-28 13:00:00 24 5 Oeste 14 Sudoeste 0 1010.3 -- 30
2020-10-28 12:00:00 22.1 6 Oeste 14 Oeste 0 1011 -- 35
2020-10-28 11:00:00 20.8 3 Sudoeste 18 Sudoeste 0 1011.2 -- 36
2020-10-28 10:00:00 18.1 9 Sudoeste 16 Sur 0 1011.1 -- 45
2020-10-28 09:00:00 14.3 2 Sudoeste 9 Oeste 0 1010.8 -- 59
2020-10-28 08:00:00 11.3 5 Oeste 9 Noroeste 0 1009.7 -- 68
2020-10-28 07:00:00 11.8 2 Norte 14 Sudoeste 0 1009.2 -- 64
2020-10-28 06:00:00 13.2 6 Oeste 21 Oeste 0 1008.9 -- 57
2020-10-28 05:00:00 13.8 12 Sudoeste 22 Sudoeste 0 1008.4 -- 53
2020-10-28 04:00:00 12.9 7 Oeste 24 Sudoeste 0 1008.4 -- 55
2020-10-28 03:00:00 14.4 13 Sudoeste 25 Sudoeste 0 1008.4 -- 48
2020-10-28 02:00:00 10.9 6 Oeste 13 Oeste 0 1008.5 -- 59
2020-10-28 01:00:00 12.4 3 Sudoeste 14 Sudoeste 0 1008.6 -- 54
2020-10-28 00:00:00 13 7 Oeste 14 Sudoeste 0 1008.6 -- 49